createdAt,value
2023-11-25T00:04:57.571Z,2.00
2023-11-25T00:14:59.464Z,1.90
2023-11-25T00:25:01.579Z,1.90
2023-11-25T00:35:04.321Z,1.90
2023-11-25T00:45:07.045Z,2.00
2023-11-25T00:55:15.596Z,1.90
2023-11-25T01:05:17.661Z,1.90
2023-11-25T01:15:19.644Z,2.00
2023-11-25T01:25:21.637Z,2.00
2023-11-25T01:35:23.619Z,2.00
2023-11-25T01:45:26.753Z,2.00
2023-11-25T01:55:29.180Z,2.00
2023-11-25T02:05:31.373Z,1.90
2023-11-25T02:15:33.479Z,2.00
2023-11-25T02:25:35.443Z,1.90
2023-11-25T02:35:37.656Z,1.70
2023-11-25T02:45:40.673Z,1.50
2023-11-25T02:55:42.955Z,1.50
2023-11-25T03:05:48.111Z,1.50
2023-11-25T03:15:55.573Z,1.40
2023-11-25T03:25:57.524Z,1.30
2023-11-25T03:35:59.452Z,1.20
2023-11-25T03:46:01.330Z,1.10
2023-11-25T03:56:03.242Z,1.20
2023-11-25T04:06:05.694Z,1.20
2023-11-25T04:16:07.862Z,1.10
2023-11-25T04:26:10.950Z,1.00
2023-11-25T04:36:13.879Z,0.80
2023-11-25T04:46:16.799Z,0.70
2023-11-25T04:56:18.975Z,0.60
2023-11-25T05:06:22.170Z,0.50
2023-11-25T05:16:27.247Z,0.50
2023-11-25T05:26:33.965Z,0.40
2023-11-25T05:36:48.678Z,0.40
2023-11-25T05:47:22.080Z,0.30
2023-11-25T05:57:24.286Z,0.30
2023-11-25T06:07:26.213Z,0.30
2023-11-25T06:17:28.251Z,0.30
2023-11-25T06:27:30.228Z,0.30
2023-11-25T06:37:32.154Z,0.20
2023-11-25T06:47:34.184Z,0.30
2023-11-25T06:57:36.536Z,0.20
2023-11-25T07:07:38.791Z,0.20
2023-11-25T07:17:41.243Z,0.40
2023-11-25T07:27:44.255Z,0.30
2023-11-25T07:37:50.132Z,0.30
2023-11-25T07:58:36.120Z,0.20
2023-11-25T08:08:38.224Z,0.20
2023-11-25T08:18:49.647Z,0.60
2023-11-25T08:28:53.763Z,0.80
2023-11-25T08:39:00.759Z,0.60
2023-11-25T08:49:36.568Z,0.70
2023-11-25T08:59:41.929Z,1.10
2023-11-25T09:10:05.354Z,0.90
2023-11-25T09:20:15.723Z,0.90
2023-11-25T09:30:32.661Z,0.60
2023-11-25T09:40:37.480Z,0.90
2023-11-25T09:50:43.940Z,1.10
2023-11-25T10:00:46.657Z,0.60
2023-11-25T10:11:09.894Z,0.80
2023-11-25T10:21:21.521Z,1.10
2023-11-25T10:31:26.928Z,0.50
2023-11-25T10:41:29.038Z,0.60
2023-11-25T10:51:38.542Z,0.70
2023-11-25T11:01:49.769Z,0.40
2023-11-25T11:23:17.248Z,1.00
2023-11-25T11:33:26.076Z,1.00
2023-11-25T11:43:36.437Z,0.80
2023-11-25T12:04:56.383Z,0.90
2023-11-25T12:25:38.037Z,0.60
2023-11-25T12:36:37.755Z,0.70
2023-11-25T12:47:01.898Z,0.90
2023-11-25T12:57:05.606Z,0.90
2023-11-25T13:07:07.640Z,0.90
2023-11-25T13:17:10.113Z,0.80
2023-11-25T13:27:12.434Z,1.00
2023-11-25T13:37:14.366Z,0.80
2023-11-25T13:47:16.576Z,0.30
2023-11-25T13:57:20.180Z,0.40
2023-11-25T14:07:22.100Z,0.40
2023-11-25T14:17:24.769Z,0.40
2023-11-25T14:27:26.831Z,0.40
2023-11-25T14:37:28.862Z,0.30
2023-11-25T14:47:30.932Z,0.40
2023-11-25T14:57:32.864Z,0.50
2023-11-25T15:07:38.046Z,0.30
2023-11-25T15:17:40.096Z,0.30
2023-11-25T15:27:42.050Z,0.30
2023-11-25T15:37:44.135Z,0.40
2023-11-25T15:47:47.503Z,1.00
2023-11-25T15:57:55.705Z,0.70
2023-11-25T16:07:57.657Z,0.50
2023-11-25T16:18:14.889Z,0.30
2023-11-25T16:28:16.884Z,0.30
2023-11-25T16:38:19.729Z,0.40
2023-11-25T16:48:29.474Z,0.40
2023-11-25T16:58:42.218Z,0.40
2023-11-25T17:08:44.291Z,0.30
2023-11-25T17:18:46.587Z,0.40
2023-11-25T17:29:21.139Z,0.50
2023-11-25T17:39:26.333Z,0.60
2023-11-25T19:09:31.099Z,0.70
2023-11-25T19:43:16.956Z,0.50
2023-11-25T20:05:28.647Z,0.60
2023-11-25T20:26:16.579Z,0.70
2023-11-25T20:36:18.990Z,0.70
2023-11-25T20:46:22.120Z,0.60
2023-11-25T20:56:29.892Z,0.70
2023-11-25T21:06:43.903Z,0.70
2023-11-25T21:16:46.768Z,0.60
2023-11-25T21:26:49.143Z,0.60
2023-11-25T21:36:51.484Z,0.70
2023-11-25T21:46:53.938Z,0.70
2023-11-25T21:56:57.512Z,0.50
2023-11-25T22:07:00.967Z,0.60
2023-11-25T22:17:04.597Z,0.70
2023-11-25T22:27:25.870Z,0.70
2023-11-25T22:37:28.435Z,0.80
2023-11-25T22:47:56.920Z,0.80
2023-11-25T22:57:59.216Z,0.80
2023-11-25T23:08:01.521Z,0.80
